Time;durP1;ratioP1;P1;durP2;ratioP2;P2;SDS_P1;SDS_P2;PMS_P1;PMS_P2;Temp;Humidity;BMP_temperature;BMP_pressure;BME280_temperature;BME280_humidity;BME280_pressure;Samples;Min_cycle;Max_cycle;Signal;HPM_P1;HPM_P2
2023/10/05 00:04:32;;;;;;;10.90;3.17;;;;;;;12.35;100.00;102244.13;5071073;28;20199;-81
2023/10/05 00:06:57;;;;;;;7.90;3.30;;;;;;;12.34;100.00;102245.06;5072563;28;20111;-81
2023/10/05 00:09:24;;;;;;;9.38;3.03;;;;;;;12.38;100.00;102249.22;5071964;28;20198;-81
2023/10/05 00:11:56;;;;;;;9.88;3.20;;;;;;;12.34;100.00;102247.69;5071150;28;20024;-84
2023/10/05 00:14:21;;;;;;;6.88;2.60;;;;;;;12.37;100.00;102250.16;5070285;28;20031;-84
2023/10/05 00:16:48;;;;;;;11.93;3.08;;;;;;;12.36;100.00;102264.28;5061729;28;20032;-84
2023/10/05 00:19:16;;;;;;;9.68;3.03;;;;;;;12.37;100.00;102255.44;5050995;28;20082;-84
2023/10/05 00:21:50;;;;;;;10.70;2.97;;;;;;;12.37;100.00;102259.88;5060379;28;20016;-82
2023/10/05 00:24:19;;;;;;;12.45;3.30;;;;;;;12.37;100.00;102258.06;5093680;28;20041;-81
2023/10/05 00:26:45;;;;;;;9.23;3.17;;;;;;;12.38;100.00;102265.06;5091885;28;20027;-81
2023/10/05 00:31:51;;;;;;;9.98;3.00;;;;;;;12.38;100.00;102265.06;5070869;28;20035;-85
2023/10/05 00:34:39;;;;;;;10.88;2.88;;;;;;;12.35;100.00;102262.59;5067605;28;20111;-84
2023/10/05 00:37:06;;;;;;;8.15;2.80;;;;;;;12.37;100.00;102266.00;5068846;28;20048;-86
2023/10/05 00:39:31;;;;;;;9.70;3.20;;;;;;;12.36;100.00;102269.56;5083252;28;20500;-81
2023/10/05 00:44:30;;;;;;;10.97;2.90;;;;;;;12.38;100.00;102277.41;5091321;28;20032;-85
2023/10/05 00:47:00;;;;;;;9.57;2.78;;;;;;;12.38;100.00;102282.69;5066944;28;20059;-84
2023/10/05 00:49:37;;;;;;;10.98;3.03;;;;;;;12.36;100.00;102272.22;5072896;28;20046;-84
2023/10/05 00:54:40;;;;;;;8.80;3.10;;;;;;;12.36;100.00;102280.13;5076900;28;20040;-84
2023/10/05 00:57:13;;;;;;;15.43;4.10;;;;;;;12.35;100.00;102281.06;5070599;28;20032;-84
2023/10/05 00:59:47;;;;;;;12.18;3.35;;;;;;;12.35;100.00;102278.44;5070314;28;20024;-81
2023/10/05 01:02:20;;;;;;;9.98;3.03;;;;;;;12.35;100.00;102278.44;5084744;28;20033;-80
2023/10/05 01:07:18;;;;;;;10.30;3.33;;;;;;;12.34;100.00;102282.00;5070056;28;19959;-80
2023/10/05 01:12:36;;;;;;;7.68;2.60;;;;;;;12.32;100.00;102286.53;5054256;28;20129;-84
2023/10/05 01:15:05;;;;;;;10.73;3.35;;;;;;;12.33;100.00;102282.09;5091835;28;20328;-85
2023/10/05 01:17:30;;;;;;;13.88;2.97;;;;;;;12.32;100.00;102272.50;5092452;28;20512;-80
2023/10/05 01:20:06;;;;;;;9.35;3.13;;;;;;;12.33;100.00;102277.66;5093312;28;20100;-80
2023/10/05 01:22:38;;;;;;;10.18;3.13;;;;;;;12.32;100.00;102269.84;5090206;28;20081;-80
2023/10/05 01:25:04;;;;;;;9.33;2.90;;;;;;;12.31;100.00;102276.06;5089720;28;20044;-81
2023/10/05 01:27:34;;;;;;;11.70;3.33;;;;;;;12.31;100.00;102282.19;5099661;28;20563;-79
2023/10/05 01:30:00;;;;;;;8.00;2.80;;;;;;;12.29;100.00;102267.38;5091800;28;20024;-82
2023/10/05 01:32:26;;;;;;;7.82;3.00;;;;;;;12.29;100.00;102270.88;5071217;28;20024;-82
2023/10/05 01:34:52;;;;;;;14.35;3.30;;;;;;;12.28;100.00;102266.53;5089000;28;20016;-83
2023/10/05 01:37:23;;;;;;;9.13;3.00;;;;;;;12.24;100.00;102267.66;5087311;28;20051;-80
2023/10/05 01:39:49;;;;;;;8.23;3.03;;;;;;;12.22;100.00;102273.03;5067954;28;20092;-83
2023/10/05 01:42:16;;;;;;;9.45;3.30;;;;;;;12.23;100.00;102273.88;5081147;28;20032;-83
2023/10/05 01:44:46;;;;;;;9.55;3.70;;;;;;;12.24;100.00;102265.03;5085906;28;20020;-83
2023/10/05 01:47:14;;;;;;;9.98;3.05;;;;;;;12.22;100.00;102261.63;5074902;28;20033;-83
2023/10/05 01:49:41;;;;;;;10.15;3.40;;;;;;;12.22;100.00;102265.13;5092033;28;20031;-82
2023/10/05 01:52:09;;;;;;;11.60;3.60;;;;;;;12.21;100.00;102268.69;5087459;28;20123;-79
2023/10/05 01:54:35;;;;;;;10.80;3.40;;;;;;;12.22;100.00;102257.19;5103924;28;20081;-82
2023/10/05 01:57:12;;;;;;;10.90;3.00;;;;;;;12.22;100.00;102259.00;5101010;28;20020;-80
2023/10/05 01:59:37;;;;;;;12.43;3.10;;;;;;;12.23;100.00;102264.16;5097887;28;20055;-80
2023/10/05 02:02:15;;;;;;;12.60;3.15;;;;;;;12.22;100.00;102259.00;5087992;28;20052;-83
2023/10/05 02:04:50;;;;;;;10.38;3.60;;;;;;;12.22;100.00;102261.63;5073739;28;20402;-83
2023/10/05 02:07:15;;;;;;;14.00;3.45;;;;;;;12.21;100.00;102252.84;5068704;28;20499;-83
2023/10/05 02:09:43;;;;;;;9.38;3.03;;;;;;;12.23;100.00;102261.53;5078562;28;20056;-81
2023/10/05 02:12:12;;;;;;;11.20;3.08;;;;;;;12.20;100.00;102259.06;5088327;28;20020;-80
2023/10/05 02:14:41;;;;;;;12.70;3.58;;;;;;;12.21;100.00;102260.78;5082997;28;20174;-81
2023/10/05 02:17:13;;;;;;;12.00;3.30;;;;;;;12.19;100.00;102251.25;5040578;28;20016;-83
2023/10/05 02:19:39;;;;;;;12.27;3.08;;;;;;;12.19;100.00;102252.09;5068845;28;20052;-83
2023/10/05 02:22:11;;;;;;;8.68;2.85;;;;;;;12.18;100.00;102250.41;5049739;28;20108;-83
2023/10/05 02:24:40;;;;;;;10.85;3.55;;;;;;;12.18;100.00;102260.94;5069062;28;20020;-80
2023/10/05 02:27:11;;;;;;;14.38;3.75;;;;;;;12.15;100.00;102249.72;5068277;28;20028;-83
2023/10/05 02:29:40;;;;;;;9.40;3.13;;;;;;;12.14;100.00;102253.31;5053653;28;20107;-80
2023/10/05 02:32:10;;;;;;;7.32;2.58;;;;;;;12.15;100.00;102247.94;5071635;28;20055;-80
2023/10/05 02:34:44;;;;;;;11.57;3.08;;;;;;;12.12;100.00;102252.56;5072314;28;20025;-81
2023/10/05 02:37:12;;;;;;;9.77;3.40;;;;;;;12.12;100.00;102250.75;5063466;28;20060;-83
2023/10/05 02:39:43;;;;;;;10.48;3.20;;;;;;;12.13;100.00;102241.06;5068811;28;20051;-83
2023/10/05 02:42:12;;;;;;;11.55;3.10;;;;;;;12.13;100.00;102241.06;5068715;28;20025;-83
2023/10/05 02:44:42;;;;;;;10.18;3.10;;;;;;;12.09;100.00;102234.25;5077230;28;20062;-80
2023/10/05 02:47:08;;;;;;;9.30;3.08;;;;;;;12.08;100.00;102235.19;5070073;28;20488;-80
2023/10/05 02:49:35;;;;;;;11.90;3.10;;;;;;;12.07;100.00;102230.88;5070931;28;20024;-85
2023/10/05 02:52:03;;;;;;;11.40;3.22;;;;;;;12.04;100.00;102225.78;5063738;28;20780;-84
2023/10/05 02:54:30;;;;;;;9.93;3.55;;;;;;;12.02;100.00;102236.41;5073333;28;20028;-84
2023/10/05 02:56:56;;;;;;;10.77;3.25;;;;;;;12.01;100.00;102231.19;5087248;28;20024;-85
2023/10/05 02:59:26;;;;;;;8.98;3.17;;;;;;;12.01;100.00;102236.47;5088887;28;20112;-84
2023/10/05 03:01:53;;;;;;;9.82;3.20;;;;;;;11.99;100.00;102233.91;5071986;28;20027;-84
2023/10/05 03:04:21;;;;;;;8.85;3.25;;;;;;;11.96;100.00;102238.53;5086689;28;20020;-80
2023/10/05 03:06:52;;;;;;;11.90;3.70;;;;;;;11.97;100.00;102242.88;5088767;28;20526;-84
2023/10/05 03:09:18;;;;;;;8.40;3.30;;;;;;;11.96;100.00;102239.38;5083344;28;20032;-80
2023/10/05 03:11:47;;;;;;;11.02;3.13;;;;;;;11.96;100.00;102223.53;5067836;28;20040;-80
2023/10/05 03:14:16;;;;;;;10.43;3.40;;;;;;;11.93;100.00;102223.72;5071998;28;20062;-85
2023/10/05 03:16:48;;;;;;;12.57;3.50;;;;;;;11.93;100.00;102221.09;5089860;28;20055;-84
2023/10/05 03:19:21;;;;;;;9.20;3.07;;;;;;;11.89;100.00;102224.84;5092892;28;20150;-82
2023/10/05 03:21:49;;;;;;;14.02;3.47;;;;;;;11.89;100.00;102228.34;5073770;28;20024;-83
2023/10/05 03:24:19;;;;;;;8.23;3.30;;;;;;;11.88;100.00;102231.06;5085781;28;20024;-83
2023/10/05 03:26:47;;;;;;;9.93;3.10;;;;;;;11.86;100.00;102223.22;5054457;28;20062;-80
2023/10/05 03:29:12;;;;;;;9.98;3.30;;;;;;;11.85;100.00;102231.22;5073634;28;20439;-84
2023/10/05 03:31:43;;;;;;;13.93;3.80;;;;;;;11.83;100.00;102212.88;5072291;28;20028;-83
2023/10/05 03:34:10;;;;;;;9.25;3.60;;;;;;;11.83;100.00;102220.78;5071508;28;20062;-80
2023/10/05 03:36:36;;;;;;;11.75;3.13;;;;;;;11.81;100.00;102224.44;5070749;28;20083;-84
2023/10/05 03:39:06;;;;;;;10.32;3.60;;;;;;;11.78;100.00;102219.34;5087553;28;20436;-84
2023/10/05 03:41:32;;;;;;;9.55;3.35;;;;;;;11.77;100.00;102218.47;5078851;28;20036;-85
2023/10/05 03:44:01;;;;;;;11.88;3.58;;;;;;;11.76;100.00;102216.75;5070558;28;20024;-84
2023/10/05 03:46:27;;;;;;;10.10;3.58;;;;;;;11.75;100.00;102219.50;5069393;28;20083;-80
2023/10/05 03:48:59;;;;;;;11.80;3.60;;;;;;;11.72;100.00;102223.16;5053065;28;20108;-81
2023/10/05 03:51:25;;;;;;;13.70;3.83;;;;;;;11.73;100.00;102237.19;5051550;28;20428;-81
2023/10/05 03:53:51;;;;;;;8.57;3.75;;;;;;;11.72;100.00;102231.06;5070179;28;20033;-81
2023/10/05 03:56:19;;;;;;;9.95;3.38;;;;;;;11.71;100.00;102229.34;5072127;28;20024;-84
2023/10/05 03:58:45;;;;;;;10.90;3.67;;;;;;;11.72;100.00;102231.06;5091637;28;20639;-84
2023/10/05 04:01:12;;;;;;;11.68;3.72;;;;;;;11.69;100.00;102220.69;5091625;28;20483;-84
2023/10/05 04:03:42;;;;;;;10.30;3.50;;;;;;;11.67;100.00;102205.91;5065379;28;20035;-84
2023/10/05 04:06:17;;;;;;;6.82;3.38;;;;;;;11.66;100.00;102205.03;5053942;28;20396;-80
2023/10/05 04:08:44;;;;;;;11.32;3.70;;;;;;;11.65;100.00;102208.63;5070789;28;20050;-84
2023/10/05 04:11:11;;;;;;;10.95;3.75;;;;;;;11.61;100.00;102213.22;5074711;28;20068;-84
2023/10/05 04:13:38;;;;;;;11.20;3.80;;;;;;;11.60;100.00;102218.53;5075324;28;20021;-84
2023/10/05 04:16:08;;;;;;;14.57;3.95;;;;;;;11.61;100.00;102215.00;5048124;28;20397;-84
2023/10/05 04:18:33;;;;;;;10.45;3.75;;;;;;;11.59;100.00;102220.34;5062006;28;20024;-84
2023/10/05 04:20:58;;;;;;;10.55;3.78;;;;;;;11.60;100.00;102219.41;5070653;28;20031;-82
2023/10/05 04:23:28;;;;;;;13.30;3.60;;;;;;;11.56;100.00;102223.16;5070412;28;20421;-83
2023/10/05 04:25:56;;;;;;;10.32;3.70;;;;;;;11.55;100.00;102223.22;5052808;28;20024;-84
2023/10/05 04:28:33;;;;;;;9.40;3.88;;;;;;;11.54;100.00;102224.16;5073003;28;20055;-84
2023/10/05 04:30:59;;;;;;;10.10;3.88;;;;;;;11.49;100.00;102219.16;5071290;28;20054;-84
2023/10/05 04:33:26;;;;;;;10.90;4.03;;;;;;;11.46;100.00;102223.75;5089104;28;20040;-84
2023/10/05 04:35:52;;;;;;;10.55;3.80;;;;;;;11.49;100.00;102215.66;5059941;28;20021;-81
2023/10/05 04:38:25;;;;;;;11.85;3.90;;;;;;;11.51;100.00;102224.34;5070236;28;20421;-81
2023/10/05 04:40:54;;;;;;;13.40;3.95;;;;;;;11.52;100.00;102228.69;5052944;28;20082;-80
2023/10/05 04:43:21;;;;;;;11.98;3.78;;;;;;;11.49;100.00;102223.56;5081141;28;20028;-81
2023/10/05 04:45:47;;;;;;;11.25;4.15;;;;;;;11.51;100.00;102222.56;5090289;28;20036;-83
2023/10/05 04:48:12;;;;;;;12.82;4.03;;;;;;;11.48;100.00;102222.72;5083726;28;20047;-85
2023/10/05 04:50:41;;;;;;;9.05;3.60;;;;;;;11.48;100.00;102222.72;5077856;28;20056;-82
2023/10/05 04:53:09;;;;;;;10.75;4.05;;;;;;;11.48;100.00;102222.72;5061077;28;20031;-82
2023/10/05 04:55:41;;;;;;;13.48;4.07;;;;;;;11.46;100.00;102229.03;5071062;28;20024;-84
2023/10/05 04:58:42;;;;;;;11.15;4.18;;;;;;;11.48;100.00;102221.88;5052129;28;20032;-81
2023/10/05 05:01:28;;;;;;;13.13;3.97;;;;;;;11.50;100.00;102215.59;5067839;28;20031;-80
2023/10/05 05:04:27;;;;;;;13.63;3.92;;;;;;;11.49;100.00;102219.16;5068757;28;20051;-84
2023/10/05 05:06:58;;;;;;;9.77;3.75;;;;;;;11.49;100.00;102215.66;5085894;28;20149;-84
2023/10/05 05:09:29;;;;;;;12.52;3.80;;;;;;;11.46;100.00;102215.84;5090084;28;20024;-80
2023/10/05 05:12:03;;;;;;;11.93;4.35;;;;;;;11.48;100.00;102224.50;5066509;28;20058;-82
2023/10/05 05:14:35;;;;;;;9.80;3.50;;;;;;;11.50;100.00;102225.28;5069837;28;20543;-83
2023/10/05 05:17:04;;;;;;;12.35;3.83;;;;;;;11.53;100.00;102225.94;5079104;28;20032;-84
2023/10/05 05:19:35;;;;;;;11.93;4.50;;;;;;;11.53;100.00;102222.47;5059698;28;20032;-84
2023/10/05 05:22:02;;;;;;;11.90;4.13;;;;;;;11.54;100.00;102232.06;5030719;28;20024;-81
2023/10/05 05:24:28;;;;;;;15.52;4.82;;;;;;;11.55;100.00;102231.97;5076193;28;20039;-84
2023/10/05 05:27:00;;;;;;;10.65;3.90;;;;;;;11.54;100.00;102237.34;5089515;28;20047;-83
2023/10/05 05:29:34;;;;;;;10.73;3.75;;;;;;;11.54;100.00;102239.97;5087565;28;20024;-85
2023/10/05 05:32:19;;;;;;;14.75;4.45;;;;;;;11.52;100.00;102232.16;5069964;28;20024;-84
2023/10/05 05:34:50;;;;;;;10.55;3.78;;;;;;;11.53;100.00;102235.66;5079060;28;20121;-84
2023/10/05 05:37:28;;;;;;;13.38;3.90;;;;;;;11.53;100.00;102235.66;5061798;28;20142;-83
2023/10/05 05:39:58;;;;;;;14.27;3.97;;;;;;;11.54;100.00;102242.63;5068085;28;20025;-80
2023/10/05 05:42:25;;;;;;;9.63;4.30;;;;;;;11.54;100.00;102242.63;5064546;28;20368;-81
2023/10/05 05:44:52;;;;;;;12.93;4.40;;;;;;;11.54;100.00;102237.34;5090119;28;20024;-83
2023/10/05 05:47:18;;;;;;;14.20;4.55;;;;;;;11.55;100.00;102234.63;5090211;28;20051;-85
2023/10/05 05:49:47;;;;;;;11.38;3.97;;;;;;;11.56;100.00;102241.59;5089404;28;20024;-85
2023/10/05 05:52:14;;;;;;;12.25;4.30;;;;;;;11.58;100.00;102245.00;5082917;28;20440;-81
2023/10/05 05:54:41;;;;;;;12.43;3.88;;;;;;;11.63;100.00;102250.03;5082216;28;20035;-80
2023/10/05 05:57:08;;;;;;;12.63;4.53;;;;;;;11.64;100.00;102243.81;5074510;28;20072;-83
2023/10/05 05:59:38;;;;;;;9.60;4.25;;;;;;;11.65;100.00;102244.69;5069977;28;20476;-83
2023/10/05 06:02:07;;;;;;;10.85;4.10;;;;;;;11.67;100.00;102243.66;5068673;28;20020;-81
2023/10/05 06:04:39;;;;;;;13.88;4.22;;;;;;;11.70;100.00;102242.63;5068982;28;20445;-83
2023/10/05 06:07:11;;;;;;;11.27;4.18;;;;;;;11.69;100.00;102235.66;5068917;28;20031;-83
2023/10/05 06:09:37;;;;;;;13.95;4.30;;;;;;;11.72;100.00;102235.47;5069550;28;20082;-85
2023/10/05 06:12:02;;;;;;;13.10;4.10;;;;;;;11.74;100.00;102245.00;5058781;28;20040;-83
2023/10/05 06:14:28;;;;;;;11.80;4.18;;;;;;;11.75;100.00;102246.69;5080232;28;20093;-84
2023/10/05 06:16:54;;;;;;;11.48;4.20;;;;;;;11.78;100.00;102251.84;5051582;28;20934;-84
2023/10/05 06:19:21;;;;;;;12.98;4.63;;;;;;;11.80;100.00;102255.22;5065446;28;20518;-84
2023/10/05 06:21:47;;;;;;;13.48;4.30;;;;;;;11.82;100.00;102263.91;5048873;28;20036;-81
2023/10/05 06:24:12;;;;;;;16.63;4.82;;;;;;;11.82;100.00;102269.19;5048431;28;20025;-80
2023/10/05 06:26:38;;;;;;;10.50;3.90;;;;;;;11.87;100.00;102266.28;5053816;28;20029;-84
2023/10/05 06:29:08;;;;;;;9.52;4.13;;;;;;;11.89;100.00;102274.97;5087647;28;20013;-84
2023/10/05 06:31:36;;;;;;;14.00;4.03;;;;;;;11.92;100.00;102273.00;5086563;28;20123;-84
2023/10/05 06:34:01;;;;;;;12.93;4.40;;;;;;;11.97;100.00;102278.00;5065536;28;20035;-84
2023/10/05 06:36:27;;;;;;;13.32;4.65;;;;;;;11.98;100.00;102281.50;5050660;28;20034;-82
2023/10/05 06:38:53;;;;;;;13.43;4.43;;;;;;;11.98;100.00;102281.50;5051561;28;20056;-83
2023/10/05 06:41:21;;;;;;;12.27;4.00;;;;;;;12.03;100.00;102282.09;5066653;28;20028;-85
2023/10/05 06:43:48;;;;;;;13.82;4.00;;;;;;;12.05;100.00;102280.22;5084151;28;20051;-84
2023/10/05 06:46:17;;;;;;;12.57;4.38;;;;;;;12.07;100.00;102283.63;5088052;28;20094;-82
2023/10/05 06:48:43;;;;;;;7.93;3.70;;;;;;;12.07;100.00;102281.00;5074521;28;20040;-81
2023/10/05 06:51:09;;;;;;;13.60;4.57;;;;;;;12.10;100.00;102286.94;5069185;28;20415;-81
2023/10/05 06:53:37;;;;;;;11.70;4.15;;;;;;;12.12;100.00;102287.69;5054572;28;20028;-83
2023/10/05 06:56:03;;;;;;;10.77;4.00;;;;;;;12.15;100.00;102302.50;5090541;28;20020;-81
2023/10/05 06:58:29;;;;;;;8.10;3.92;;;;;;;12.18;100.00;102299.69;5085974;28;20103;-84
2023/10/05 07:00:54;;;;;;;12.23;4.28;;;;;;;12.20;100.00;102292.53;5082510;28;20542;-83
2023/10/05 07:03:20;;;;;;;13.20;4.90;;;;;;;12.27;100.00;102307.06;5088547;28;20028;-82
2023/10/05 07:05:56;;;;;;;8.80;3.83;;;;;;;12.29;100.00;102307.81;5092906;28;20035;-81
2023/10/05 07:08:24;;;;;;;13.07;4.45;;;;;;;12.29;100.00;102310.47;5085393;28;20032;-83
2023/10/05 07:10:50;;;;;;;14.30;4.22;;;;;;;12.33;100.00;102311.97;5054396;28;20116;-81
2023/10/05 07:13:21;;;;;;;13.10;4.00;;;;;;;12.37;100.00;102318.78;5053659;28;20506;-80
2023/10/05 07:15:47;;;;;;;13.18;3.95;;;;;;;12.42;100.00;102316.75;5072160;28;20029;-83
2023/10/05 07:18:17;;;;;;;13.82;4.82;;;;;;;12.47;100.00;102325.25;5071954;28;20369;-83
2023/10/05 07:20:43;;;;;;;13.20;4.70;;;;;;;12.50;100.00;102325.06;5049321;28;20076;-82
2023/10/05 07:23:08;;;;;;;8.77;4.43;;;;;;;12.58;100.00;102329.91;5049141;28;20057;-81
2023/10/05 07:25:34;;;;;;;11.07;4.00;;;;;;;12.61;100.00;102326.22;5049364;28;20049;-84
2023/10/05 07:27:59;;;;;;;13.20;4.18;;;;;;;12.71;100.00;102330.03;5046842;28;20036;-81
2023/10/05 07:30:25;;;;;;;11.25;4.00;;;;;;;12.78;100.00;102334.00;5068131;28;20548;-84
2023/10/05 07:32:51;;;;;;;11.85;4.32;;;;;;;12.82;100.00;102341.66;5040763;28;20601;-81
2023/10/05 07:35:17;;;;;;;12.30;3.88;;;;;;;12.87;100.00;102344.03;5030508;28;20159;-84
2023/10/05 07:37:42;;;;;;;14.43;4.18;;;;;;;12.90;100.00;102351.78;5030659;28;20452;-84
2023/10/05 07:40:09;;;;;;;12.75;3.88;;;;;;;12.95;100.00;102352.34;5042835;28;21132;-84
2023/10/05 07:42:37;;;;;;;9.40;4.00;;;;;;;13.02;100.00;102358.97;5059340;28;20116;-84
2023/10/05 07:45:07;;;;;;;14.20;4.38;;;;;;;13.09;100.00;102351.50;5068898;28;20028;-80
2023/10/05 07:47:39;;;;;;;10.45;4.13;;;;;;;13.10;100.00;102351.41;5053863;28;20064;-83
2023/10/05 07:50:05;;;;;;;13.07;3.85;;;;;;;13.17;100.00;102352.78;5035207;28;20055;-80
2023/10/05 07:52:31;;;;;;;10.18;3.90;;;;;;;13.23;100.00;102361.28;5081982;28;20532;-80
2023/10/05 07:54:57;;;;;;;13.85;4.25;;;;;;;13.29;100.00;102358.28;5062249;28;20146;-80
2023/10/05 07:57:22;;;;;;;11.82;3.90;;;;;;;13.42;100.00;102364.50;5072100;28;20480;-81
2023/10/05 07:59:48;;;;;;;13.15;4.18;;;;;;;13.52;100.00;102362.97;5071924;28;20031;-80
2023/10/05 08:02:14;;;;;;;9.80;3.75;;;;;;;13.62;100.00;102368.56;5071472;28;20404;-80
2023/10/05 08:04:41;;;;;;;12.68;3.80;;;;;;;13.71;100.00;102358.25;5071130;28;20029;-80
2023/10/05 08:07:08;;;;;;;10.73;3.63;;;;;;;13.74;100.00;102365.16;5055371;28;20063;-80
2023/10/05 08:09:37;;;;;;;9.80;3.85;;;;;;;13.82;100.00;102369.94;5084424;28;20388;-80
2023/10/05 08:12:02;;;;;;;14.93;4.57;;;;;;;13.90;100.00;102371.16;5070601;28;20036;-81
2023/10/05 08:14:30;;;;;;;10.23;3.50;;;;;;;13.96;100.00;102369.91;5071904;28;20468;-83
2023/10/05 08:16:56;;;;;;;9.55;3.70;;;;;;;14.02;100.00;102377.50;5078191;28;20077;-81
2023/10/05 08:19:25;;;;;;;10.02;3.60;;;;;;;14.09;100.00;102373.50;5084933;28;20020;-83
2023/10/05 08:21:52;;;;;;;10.90;3.97;;;;;;;14.14;100.00;102376.69;5053324;28;20028;-83
2023/10/05 08:24:18;;;;;;;16.15;4.03;;;;;;;14.19;100.00;102386.97;5070349;28;20078;-80
2023/10/05 08:26:43;;;;;;;12.18;3.80;;;;;;;14.27;100.00;102377.59;5052685;28;20033;-83
2023/10/05 08:29:09;;;;;;;12.52;3.70;;;;;;;14.30;100.00;102381.81;5069861;28;20016;-83
2023/10/05 08:31:36;;;;;;;11.30;3.80;;;;;;;14.34;100.00;102386.81;5071872;28;20116;-80
2023/10/05 08:34:03;;;;;;;7.88;3.30;;;;;;;14.37;100.00;102383.13;5070478;28;20374;-83
2023/10/05 08:36:28;;;;;;;13.73;3.83;;;;;;;14.38;100.00;102387.47;5070362;28;20056;-82
2023/10/05 08:38:54;;;;;;;10.95;3.38;;;;;;;14.41;100.00;102385.50;5068802;28;20035;-82
2023/10/05 08:41:25;;;;;;;10.55;3.58;;;;;;;14.49;100.00;102390.31;5082011;28;20059;-82
2023/10/05 08:43:50;;;;;;;9.20;3.60;;;;;;;14.56;100.00;102390.75;5075925;28;20418;-84
2023/10/05 08:46:18;;;;;;;10.98;3.17;;;;;;;14.62;100.00;102393.00;5083753;28;20031;-81
2023/10/05 08:48:46;;;;;;;10.40;3.60;;;;;;;14.65;100.00;102398.09;5088365;28;20112;-82
2023/10/05 08:51:12;;;;;;;11.70;3.53;;;;;;;14.68;99.22;102395.22;5090478;28;20111;-81
2023/10/05 08:53:44;;;;;;;10.15;3.13;;;;;;;14.71;99.67;102405.63;5070628;28;20119;-80
2023/10/05 08:56:13;;;;;;;12.43;3.50;;;;;;;14.75;99.59;102409.78;5052573;28;20025;-82
2023/10/05 08:58:46;;;;;;;13.02;3.90;;;;;;;14.80;99.33;102407.66;5069923;28;20036;-81
2023/10/05 09:01:21;;;;;;;10.35;3.55;;;;;;;14.84;99.14;102403.88;5071287;28;20039;-85
2023/10/05 09:03:53;;;;;;;10.35;3.22;;;;;;;14.92;98.40;102404.22;5080303;28;20070;-85
2023/10/05 09:06:26;;;;;;;12.75;3.80;;;;;;;15.04;98.18;102410.47;5065240;28;20039;-83
2023/10/05 09:08:53;;;;;;;12.07;3.30;;;;;;;15.08;98.00;102416.41;5062764;28;20491;-85
2023/10/05 09:11:31;;;;;;;10.07;3.10;;;;;;;15.16;98.74;102428.19;5083731;28;20032;-87
2023/10/05 09:14:17;;;;;;;11.85;3.63;;;;;;;15.15;96.91;102433.59;5090204;28;20103;-86
2023/10/05 09:16:48;;;;;;;9.30;3.25;;;;;;;15.25;97.84;102440.00;5054795;28;20051;-86
2023/10/05 09:19:29;;;;;;;11.32;3.63;;;;;;;15.33;97.22;102445.63;5078668;28;20024;-86
2023/10/05 09:22:10;;;;;;;9.05;3.20;;;;;;;15.29;95.83;102444.97;5071944;28;20067;-86
2023/10/05 09:24:43;;;;;;;15.20;4.45;;;;;;;15.31;96.62;102444.88;5070667;28;20090;-86
2023/10/05 09:27:17;;;;;;;;;;;;;;;15.46;98.47;102454.44;5058149;28;20042;-86
2023/10/05 09:29:44;;;;;;;12.20;3.65;;;;;;;15.35;95.35;102447.22;5078493;28;19915;-86
2023/10/05 09:32:30;;;;;;;8.68;3.38;;;;;;;15.45;95.75;102447.41;5071303;28;20383;-81
2023/10/05 09:34:56;;;;;;;11.80;3.00;;;;;;;15.55;95.99;102448.47;5079814;28;20436;-86
2023/10/05 09:37:26;;;;;;;9.15;3.00;;;;;;;15.61;94.29;102450.75;5084782;28;20036;-85
2023/10/05 09:39:59;;;;;;;10.77;3.15;;;;;;;15.61;94.02;102458.72;5085046;28;20016;-82
2023/10/05 09:42:25;;;;;;;10.27;3.38;;;;;;;15.69;93.98;102444.06;5078601;28;20020;-82
2023/10/05 09:44:57;;;;;;;9.68;3.03;;;;;;;15.66;94.40;102450.44;5080823;28;20084;-86
2023/10/05 09:47:32;;;;;;;10.63;3.10;;;;;;;15.71;93.32;102450.97;5055532;28;20093;-84
2023/10/05 09:50:00;;;;;;;9.80;3.28;;;;;;;15.72;92.57;102449.16;5058395;28;20089;-86
2023/10/05 09:52:37;;;;;;;9.60;3.15;;;;;;;15.66;92.31;102455.75;5065621;28;20127;-84
2023/10/05 09:55:07;;;;;;;12.55;3.92;;;;;;;15.70;93.89;102456.38;5069165;28;20059;-82
2023/10/05 09:57:57;;;;;;;9.95;3.00;;;;;;;15.69;94.04;102444.91;5069972;28;20134;-86
2023/10/05 10:02:58;;;;;;;10.63;3.55;;;;;;;15.71;93.59;102455.41;5071621;28;20082;-85
2023/10/05 10:05:29;;;;;;;10.20;2.95;;;;;;;15.70;92.50;102453.72;5058331;28;20016;-81
2023/10/05 10:07:57;;;;;;;9.52;3.03;;;;;;;15.70;92.26;102451.06;5071021;28;20023;-82
2023/10/05 10:10:24;;;;;;;12.35;3.95;;;;;;;15.75;92.75;102459.56;5079267;28;20051;-81
2023/10/05 10:12:52;;;;;;;13.73;3.30;;;;;;;15.78;93.54;102460.19;5074724;28;20020;-80
2023/10/05 10:15:32;;;;;;;10.57;3.03;;;;;;;15.79;94.01;102453.91;5080993;28;20034;-85
2023/10/05 10:18:15;;;;;;;12.07;3.50;;;;;;;15.79;92.49;102453.06;5071677;28;20556;-85
2023/10/05 10:21:08;;;;;;;8.82;3.00;;;;;;;15.84;93.13;102450.94;5081196;28;20357;-86
2023/10/05 10:23:36;;;;;;;;;;;;;;;15.99;94.55;102452.50;5050047;28;20045;-86
2023/10/05 10:26:18;;;;;;;11.52;3.55;;;;;;;15.90;92.21;102448.69;5062141;28;19923;-86
2023/10/05 10:31:30;;;;;;;11.10;3.22;;;;;;;16.02;91.59;102447.00;5073508;28;20162;-85
2023/10/05 10:34:19;;;;;;;12.23;3.58;;;;;;;16.05;91.73;102445.94;5072747;28;20035;-85
2023/10/05 10:36:46;;;;;;;11.25;3.20;;;;;;;16.10;90.87;102439.31;5062499;28;20031;-85
2023/10/05 10:39:24;;;;;;;11.73;3.30;;;;;;;16.22;90.93;102443.75;5074561;28;20071;-85
2023/10/05 10:41:54;;;;;;;10.85;3.35;;;;;;;16.28;90.74;102456.56;5072426;28;20182;-84
2023/10/05 10:44:21;;;;;;;9.77;3.42;;;;;;;16.37;90.77;102448.91;5071985;28;20024;-86
2023/10/05 10:46:54;;;;;;;11.90;3.42;;;;;;;16.51;91.19;102454.06;5075061;28;20097;-82
2023/10/05 10:49:19;;;;;;;9.35;3.00;;;;;;;16.63;90.12;102450.50;5058657;28;20035;-81
2023/10/05 10:51:46;;;;;;;10.10;3.42;;;;;;;16.71;88.38;102442.84;5073396;28;20029;-86
2023/10/05 10:54:21;;;;;;;10.77;3.17;;;;;;;16.85;89.19;102440.00;5072268;28;20024;-86
2023/10/05 10:56:47;;;;;;;13.43;3.40;;;;;;;16.94;87.12;102434.97;5074960;28;20060;-80
2023/10/05 10:59:20;;;;;;;11.43;3.40;;;;;;;17.12;88.02;102431.72;5066998;28;20074;-85
2023/10/05 11:01:52;;;;;;;;;;;;;;;17.32;90.64;102440.88;5091918;28;20028;-83
2023/10/05 11:04:31;;;;;;;8.77;3.13;;;;;;;17.37;85.48;102428.03;5089124;28;19954;-85
2023/10/05 11:07:17;;;;;;;10.40;3.50;;;;;;;17.44;84.26;102431.91;5092984;28;20285;-81
2023/10/05 11:09:48;;;;;;;8.02;3.47;;;;;;;17.50;81.88;102434.09;5075762;28;20029;-84
2023/10/05 11:12:20;;;;;;;10.45;3.42;;;;;;;17.68;82.38;102439.84;5084110;28;20035;-84
2023/10/05 11:14:46;;;;;;;8.40;3.28;;;;;;;17.72;80.10;102432.47;5054458;28;20027;-81
2023/10/05 11:17:46;;;;;;;6.95;2.90;;;;;;;17.83;83.12;102440.44;5097794;28;20028;-85
2023/10/05 11:20:53;;;;;;;10.45;2.90;;;;;;;17.99;83.40;102440.91;5074025;28;20043;-85
2023/10/05 11:23:25;;;;;;;7.68;3.13;;;;;;;18.09;81.42;102443.72;5076563;28;20074;-86
2023/10/05 11:28:37;;;;;;;15.15;4.05;;;;;;;18.19;79.45;102435.81;5082711;28;20067;-84
2023/10/05 11:31:03;;;;;;;10.20;3.53;;;;;;;18.25;77.64;102429.97;5096570;28;20023;-83
2023/10/05 11:33:33;;;;;;;8.75;3.40;;;;;;;18.32;79.13;102428.50;5109544;28;20019;-84
2023/10/05 11:36:08;;;;;;;9.93;3.42;;;;;;;18.57;77.49;102425.53;5115951;28;20034;-84
2023/10/05 11:38:35;;;;;;;8.50;3.15;;;;;;;18.69;76.12;102427.19;5114797;28;20004;-86
2023/10/05 11:41:00;;;;;;;9.38;3.38;;;;;;;18.70;74.73;102426.22;5109667;28;20031;-84
2023/10/05 11:43:26;;;;;;;10.77;3.47;;;;;;;18.65;75.29;102425.78;5085091;28;20028;-79
2023/10/05 11:45:56;;;;;;;10.23;3.67;;;;;;;18.53;75.05;102426.75;5085263;28;20467;-80
2023/10/05 11:48:40;;;;;;;9.38;3.40;;;;;;;18.54;75.27;102420.47;5101595;28;20032;-83
2023/10/05 11:51:09;;;;;;;10.60;3.50;;;;;;;18.66;75.40;102418.63;5097249;28;20028;-79